sensor_id;sensor_type;location;lat;lon;timestamp;P1;durP1;ratioP1;P2;durP2;ratioP2
8297;SDS011;4187;42.778;23.242;2023-04-24T00:01:14;9.70;;;6.63;;
8297;SDS011;4187;42.778;23.242;2023-04-24T00:03:42;7.15;;;6.45;;
8297;SDS011;4187;42.778;23.242;2023-04-24T00:06:09;7.88;;;6.40;;
8297;SDS011;4187;42.778;23.242;2023-04-24T00:08:35;6.68;;;5.90;;
8297;SDS011;4187;42.778;23.242;2023-04-24T00:11:02;8.10;;;6.03;;
8297;SDS011;4187;42.778;23.242;2023-04-24T00:13:29;11.93;;;6.28;;
8297;SDS011;4187;42.778;23.242;2023-04-24T00:15:56;10.32;;;6.88;;
8297;SDS011;4187;42.778;23.242;2023-04-24T00:18:24;12.00;;;6.97;;
8297;SDS011;4187;42.778;23.242;2023-04-24T00:20:52;8.10;;;7.00;;
8297;SDS011;4187;42.778;23.242;2023-04-24T00:23:19;8.20;;;6.65;;
8297;SDS011;4187;42.778;23.242;2023-04-24T00:25:46;11.02;;;7.70;;
8297;SDS011;4187;42.778;23.242;2023-04-24T00:28:12;8.77;;;7.20;;
8297;SDS011;4187;42.778;23.242;2023-04-24T00:30:39;10.02;;;7.90;;
8297;SDS011;4187;42.778;23.242;2023-04-24T00:33:06;7.95;;;6.35;;
8297;SDS011;4187;42.778;23.242;2023-04-24T00:35:34;7.90;;;7.20;;
8297;SDS011;4187;42.778;23.242;2023-04-24T00:38:01;7.30;;;6.57;;
8297;SDS011;4187;42.778;23.242;2023-04-24T00:40:28;10.18;;;6.28;;
8297;SDS011;4187;42.778;23.242;2023-04-24T00:42:55;7.53;;;6.75;;
8297;SDS011;4187;42.778;23.242;2023-04-24T00:45:22;8.57;;;6.65;;
8297;SDS011;4187;42.778;23.242;2023-04-24T00:47:49;6.90;;;5.75;;
8297;SDS011;4187;42.778;23.242;2023-04-24T00:50:20;8.10;;;6.80;;
8297;SDS011;4187;42.778;23.242;2023-04-24T00:52:49;9.13;;;7.22;;
8297;SDS011;4187;42.778;23.242;2023-04-24T00:55:16;7.30;;;6.60;;
8297;SDS011;4187;42.778;23.242;2023-04-24T00:57:43;11.35;;;7.07;;
8297;SDS011;4187;42.778;23.242;2023-04-24T01:00:11;7.93;;;6.72;;
8297;SDS011;4187;42.778;23.242;2023-04-24T01:02:39;8.70;;;7.78;;
8297;SDS011;4187;42.778;23.242;2023-04-24T01:05:10;9.98;;;7.80;;
8297;SDS011;4187;42.778;23.242;2023-04-24T01:07:37;8.88;;;7.20;;
8297;SDS011;4187;42.778;23.242;2023-04-24T01:10:07;9.00;;;7.97;;
8297;SDS011;4187;42.778;23.242;2023-04-24T01:12:35;8.85;;;7.70;;
8297;SDS011;4187;42.778;23.242;2023-04-24T01:15:03;8.15;;;7.35;;
8297;SDS011;4187;42.778;23.242;2023-04-24T01:17:31;8.02;;;7.22;;
8297;SDS011;4187;42.778;23.242;2023-04-24T01:19:58;8.90;;;7.80;;
8297;SDS011;4187;42.778;23.242;2023-04-24T01:22:27;7.90;;;7.10;;
8297;SDS011;4187;42.778;23.242;2023-04-24T01:24:54;8.45;;;7.60;;
8297;SDS011;4187;42.778;23.242;2023-04-24T01:27:20;9.65;;;7.68;;
8297;SDS011;4187;42.778;23.242;2023-04-24T01:29:47;9.43;;;7.65;;
8297;SDS011;4187;42.778;23.242;2023-04-24T01:32:17;7.50;;;6.78;;
8297;SDS011;4187;42.778;23.242;2023-04-24T01:34:44;8.20;;;7.40;;
8297;SDS011;4187;42.778;23.242;2023-04-24T01:37:11;11.98;;;7.20;;
8297;SDS011;4187;42.778;23.242;2023-04-24T01:39:39;7.20;;;6.47;;
8297;SDS011;4187;42.778;23.242;2023-04-24T01:42:06;9.45;;;6.97;;
8297;SDS011;4187;42.778;23.242;2023-04-24T01:44:33;7.57;;;6.43;;
8297;SDS011;4187;42.778;23.242;2023-04-24T01:47:00;10.50;;;7.05;;
8297;SDS011;4187;42.778;23.242;2023-04-24T01:49:27;9.95;;;7.68;;
8297;SDS011;4187;42.778;23.242;2023-04-24T01:51:54;11.48;;;6.82;;
8297;SDS011;4187;42.778;23.242;2023-04-24T01:54:21;7.38;;;6.68;;
8297;SDS011;4187;42.778;23.242;2023-04-24T01:56:49;8.13;;;7.22;;
8297;SDS011;4187;42.778;23.242;2023-04-24T01:59:16;7.65;;;6.90;;
8297;SDS011;4187;42.778;23.242;2023-04-24T02:01:43;9.02;;;7.60;;
8297;SDS011;4187;42.778;23.242;2023-04-24T02:04:10;8.85;;;6.97;;
8297;SDS011;4187;42.778;23.242;2023-04-24T02:06:37;9.75;;;7.93;;
8297;SDS011;4187;42.778;23.242;2023-04-24T02:09:04;8.73;;;7.72;;
8297;SDS011;4187;42.778;23.242;2023-04-24T02:11:31;10.23;;;8.23;;
8297;SDS011;4187;42.778;23.242;2023-04-24T02:13:59;10.65;;;7.70;;
8297;SDS011;4187;42.778;23.242;2023-04-24T02:16:27;12.05;;;8.38;;
8297;SDS011;4187;42.778;23.242;2023-04-24T02:18:57;9.15;;;8.25;;
8297;SDS011;4187;42.778;23.242;2023-04-24T02:21:24;10.17;;;7.83;;
8297;SDS011;4187;42.778;23.242;2023-04-24T02:23:50;9.23;;;7.15;;
8297;SDS011;4187;42.778;23.242;2023-04-24T02:26:17;9.88;;;7.90;;
8297;SDS011;4187;42.778;23.242;2023-04-24T02:28:44;8.90;;;7.72;;
8297;SDS011;4187;42.778;23.242;2023-04-24T02:31:12;7.90;;;6.93;;
8297;SDS011;4187;42.778;23.242;2023-04-24T02:33:39;12.98;;;7.90;;
8297;SDS011;4187;42.778;23.242;2023-04-24T02:36:06;8.63;;;7.47;;
8297;SDS011;4187;42.778;23.242;2023-04-24T02:38:33;8.77;;;7.40;;
8297;SDS011;4187;42.778;23.242;2023-04-24T02:41:00;11.10;;;7.97;;
8297;SDS011;4187;42.778;23.242;2023-04-24T02:43:27;8.93;;;7.03;;
8297;SDS011;4187;42.778;23.242;2023-04-24T02:45:54;8.77;;;7.88;;
8297;SDS011;4187;42.778;23.242;2023-04-24T02:48:22;9.30;;;7.90;;
8297;SDS011;4187;42.778;23.242;2023-04-24T02:50:48;10.30;;;7.40;;
8297;SDS011;4187;42.778;23.242;2023-04-24T02:53:15;9.18;;;7.50;;
8297;SDS011;4187;42.778;23.242;2023-04-24T02:55:42;10.23;;;8.23;;
8297;SDS011;4187;42.778;23.242;2023-04-24T02:58:09;10.73;;;8.25;;
8297;SDS011;4187;42.778;23.242;2023-04-24T03:00:37;12.80;;;8.82;;
8297;SDS011;4187;42.778;23.242;2023-04-24T03:03:04;9.87;;;8.53;;
8297;SDS011;4187;42.778;23.242;2023-04-24T03:05:33;11.07;;;8.77;;
8297;SDS011;4187;42.778;23.242;2023-04-24T03:08:00;11.90;;;9.43;;
8297;SDS011;4187;42.778;23.242;2023-04-24T03:10:27;10.87;;;8.90;;
8297;SDS011;4187;42.778;23.242;2023-04-24T03:12:54;10.73;;;8.53;;
8297;SDS011;4187;42.778;23.242;2023-04-24T03:15:20;9.97;;;7.70;;
8297;SDS011;4187;42.778;23.242;2023-04-24T03:17:47;9.80;;;8.53;;
8297;SDS011;4187;42.778;23.242;2023-04-24T03:20:14;8.97;;;8.07;;
8297;SDS011;4187;42.778;23.242;2023-04-24T03:22:43;10.13;;;9.13;;
8297;SDS011;4187;42.778;23.242;2023-04-24T03:25:09;9.33;;;8.33;;
8297;SDS011;4187;42.778;23.242;2023-04-24T03:27:36;11.70;;;8.23;;
8297;SDS011;4187;42.778;23.242;2023-04-24T03:30:04;9.43;;;7.83;;
8297;SDS011;4187;42.778;23.242;2023-04-24T03:32:32;10.50;;;9.07;;
8297;SDS011;4187;42.778;23.242;2023-04-24T03:34:59;8.93;;;8.03;;
8297;SDS011;4187;42.778;23.242;2023-04-24T03:37:26;11.37;;;8.40;;
8297;SDS011;4187;42.778;23.242;2023-04-24T03:39:54;10.07;;;7.90;;
8297;SDS011;4187;42.778;23.242;2023-04-24T03:42:21;11.30;;;7.53;;
8297;SDS011;4187;42.778;23.242;2023-04-24T03:44:48;9.73;;;8.10;;
8297;SDS011;4187;42.778;23.242;2023-04-24T03:47:14;8.93;;;8.03;;
8297;SDS011;4187;42.778;23.242;2023-04-24T03:49:41;10.50;;;7.73;;
8297;SDS011;4187;42.778;23.242;2023-04-24T03:52:08;13.27;;;8.57;;
8297;SDS011;4187;42.778;23.242;2023-04-24T03:54:35;10.30;;;8.60;;
8297;SDS011;4187;42.778;23.242;2023-04-24T03:57:03;9.80;;;8.40;;
8297;SDS011;4187;42.778;23.242;2023-04-24T03:59:30;9.87;;;7.97;;
8297;SDS011;4187;42.778;23.242;2023-04-24T04:01:57;12.47;;;8.07;;
8297;SDS011;4187;42.778;23.242;2023-04-24T04:04:24;10.77;;;8.77;;
8297;SDS011;4187;42.778;23.242;2023-04-24T04:06:50;10.13;;;8.27;;
8297;SDS011;4187;42.778;23.242;2023-04-24T04:09:18;11.40;;;8.77;;
8297;SDS011;4187;42.778;23.242;2023-04-24T04:11:45;9.30;;;8.33;;
8297;SDS011;4187;42.778;23.242;2023-04-24T04:14:13;16.93;;;9.00;;
8297;SDS011;4187;42.778;23.242;2023-04-24T04:16:40;10.17;;;8.13;;
8297;SDS011;4187;42.778;23.242;2023-04-24T04:19:07;9.63;;;8.67;;
8297;SDS011;4187;42.778;23.242;2023-04-24T04:21:33;9.77;;;7.47;;
8297;SDS011;4187;42.778;23.242;2023-04-24T04:24:00;10.47;;;8.90;;
8297;SDS011;4187;42.778;23.242;2023-04-24T04:26:27;12.03;;;8.77;;
8297;SDS011;4187;42.778;23.242;2023-04-24T04:28:57;11.00;;;8.73;;
8297;SDS011;4187;42.778;23.242;2023-04-24T04:31:27;10.87;;;8.90;;
8297;SDS011;4187;42.778;23.242;2023-04-24T04:33:53;12.93;;;8.50;;
8297;SDS011;4187;42.778;23.242;2023-04-24T04:36:20;28.85;;;15.00;;
8297;SDS011;4187;42.778;23.242;2023-04-24T04:38:49;23.05;;;14.32;;
8297;SDS011;4187;42.778;23.242;2023-04-24T04:41:15;13.20;;;10.43;;
8297;SDS011;4187;42.778;23.242;2023-04-24T04:43:43;16.50;;;10.40;;
8297;SDS011;4187;42.778;23.242;2023-04-24T04:46:10;23.00;;;14.88;;
8297;SDS011;4187;42.778;23.242;2023-04-24T04:48:38;12.88;;;10.15;;
8297;SDS011;4187;42.778;23.242;2023-04-24T04:51:05;14.60;;;9.52;;
8297;SDS011;4187;42.778;23.242;2023-04-24T04:53:32;12.93;;;9.18;;
8297;SDS011;4187;42.778;23.242;2023-04-24T04:55:58;9.20;;;7.45;;
8297;SDS011;4187;42.778;23.242;2023-04-24T04:58:25;8.85;;;7.45;;
8297;SDS011;4187;42.778;23.242;2023-04-24T05:00:52;9.18;;;7.03;;
8297;SDS011;4187;42.778;23.242;2023-04-24T05:03:19;9.48;;;7.13;;
8297;SDS011;4187;42.778;23.242;2023-04-24T05:05:47;8.57;;;6.75;;
8297;SDS011;4187;42.778;23.242;2023-04-24T05:08:14;9.80;;;6.47;;
8297;SDS011;4187;42.778;23.242;2023-04-24T05:10:41;9.07;;;6.72;;
8297;SDS011;4187;42.778;23.242;2023-04-24T05:13:08;9.55;;;6.75;;
8297;SDS011;4187;42.778;23.242;2023-04-24T05:15:35;10.35;;;7.13;;
8297;SDS011;4187;42.778;23.242;2023-04-24T05:18:01;9.05;;;7.50;;
8297;SDS011;4187;42.778;23.242;2023-04-24T05:20:28;6.78;;;6.07;;
8297;SDS011;4187;42.778;23.242;2023-04-24T05:22:56;7.70;;;6.75;;
8297;SDS011;4187;42.778;23.242;2023-04-24T05:25:23;7.03;;;6.35;;
8297;SDS011;4187;42.778;23.242;2023-04-24T05:27:51;10.30;;;6.60;;
8297;SDS011;4187;42.778;23.242;2023-04-24T05:30:19;7.78;;;7.05;;
8297;SDS011;4187;42.778;23.242;2023-04-24T05:32:46;10.60;;;8.73;;
8297;SDS011;4187;42.778;23.242;2023-04-24T05:35:12;9.25;;;7.80;;
8297;SDS011;4187;42.778;23.242;2023-04-24T05:37:39;8.48;;;7.18;;
8297;SDS011;4187;42.778;23.242;2023-04-24T05:40:08;7.82;;;7.03;;
8297;SDS011;4187;42.778;23.242;2023-04-24T05:42:36;12.18;;;6.65;;
8297;SDS011;4187;42.778;23.242;2023-04-24T05:45:03;9.68;;;6.95;;
8297;SDS011;4187;42.778;23.242;2023-04-24T05:47:30;7.95;;;6.90;;
8297;SDS011;4187;42.778;23.242;2023-04-24T05:49:57;8.43;;;6.65;;
8297;SDS011;4187;42.778;23.242;2023-04-24T05:52:24;7.63;;;5.82;;
8297;SDS011;4187;42.778;23.242;2023-04-24T05:54:51;6.40;;;5.75;;
8297;SDS011;4187;42.778;23.242;2023-04-24T05:57:19;6.78;;;6.15;;
8297;SDS011;4187;42.778;23.242;2023-04-24T05:59:46;6.93;;;6.22;;
8297;SDS011;4187;42.778;23.242;2023-04-24T06:02:12;10.13;;;6.43;;
8297;SDS011;4187;42.778;23.242;2023-04-24T06:04:39;8.02;;;5.80;;
8297;SDS011;4187;42.778;23.242;2023-04-24T06:07:06;10.27;;;5.20;;
8297;SDS011;4187;42.778;23.242;2023-04-24T06:09:33;6.68;;;5.93;;
8297;SDS011;4187;42.778;23.242;2023-04-24T06:12:00;7.00;;;6.03;;
8297;SDS011;4187;42.778;23.242;2023-04-24T06:14:28;7.97;;;4.78;;
8297;SDS011;4187;42.778;23.242;2023-04-24T06:16:55;7.22;;;4.93;;
8297;SDS011;4187;42.778;23.242;2023-04-24T06:19:22;5.78;;;4.90;;
8297;SDS011;4187;42.778;23.242;2023-04-24T06:21:49;5.85;;;4.15;;
8297;SDS011;4187;42.778;23.242;2023-04-24T06:24:15;6.53;;;5.03;;
8297;SDS011;4187;42.778;23.242;2023-04-24T06:26:42;8.80;;;4.47;;
8297;SDS011;4187;42.778;23.242;2023-04-24T06:29:09;8.35;;;4.40;;
8297;SDS011;4187;42.778;23.242;2023-04-24T06:31:37;5.53;;;5.00;;
8297;SDS011;4187;42.778;23.242;2023-04-24T06:34:04;6.38;;;4.78;;
8297;SDS011;4187;42.778;23.242;2023-04-24T06:36:31;14.32;;;13.13;;
8297;SDS011;4187;42.778;23.242;2023-04-24T06:38:59;10.10;;;5.70;;
8297;SDS011;4187;42.778;23.242;2023-04-24T06:41:26;10.63;;;6.65;;
8297;SDS011;4187;42.778;23.242;2023-04-24T06:43:54;7.70;;;5.65;;
8297;SDS011;4187;42.778;23.242;2023-04-24T06:46:21;5.78;;;4.95;;
8297;SDS011;4187;42.778;23.242;2023-04-24T06:48:50;8.18;;;4.80;;
8297;SDS011;4187;42.778;23.242;2023-04-24T06:51:17;6.65;;;4.65;;
8297;SDS011;4187;42.778;23.242;2023-04-24T06:53:43;6.07;;;4.50;;
8297;SDS011;4187;42.778;23.242;2023-04-24T06:56:10;6.07;;;4.63;;
8297;SDS011;4187;42.778;23.242;2023-04-24T06:58:37;6.82;;;4.47;;
8297;SDS011;4187;42.778;23.242;2023-04-24T07:01:04;5.78;;;5.18;;
8297;SDS011;4187;42.778;23.242;2023-04-24T07:03:31;6.55;;;5.00;;
8297;SDS011;4187;42.778;23.242;2023-04-24T07:05:59;8.05;;;5.63;;
8297;SDS011;4187;42.778;23.242;2023-04-24T07:08:26;7.72;;;5.88;;
8297;SDS011;4187;42.778;23.242;2023-04-24T07:10:53;5.43;;;4.93;;
8297;SDS011;4187;42.778;23.242;2023-04-24T07:13:21;5.82;;;4.85;;
8297;SDS011;4187;42.778;23.242;2023-04-24T07:15:47;6.28;;;5.30;;
8297;SDS011;4187;42.778;23.242;2023-04-24T07:18:15;10.18;;;6.30;;
8297;SDS011;4187;42.778;23.242;2023-04-24T07:20:43;5.07;;;4.53;;
8297;SDS011;4187;42.778;23.242;2023-04-24T07:23:11;5.82;;;4.95;;
8297;SDS011;4187;42.778;23.242;2023-04-24T07:25:38;11.30;;;5.72;;
8297;SDS011;4187;42.778;23.242;2023-04-24T07:28:05;8.10;;;5.13;;
8297;SDS011;4187;42.778;23.242;2023-04-24T07:30:31;6.47;;;5.72;;
8297;SDS011;4187;42.778;23.242;2023-04-24T07:32:58;6.68;;;4.90;;
8297;SDS011;4187;42.778;23.242;2023-04-24T07:35:25;7.50;;;4.32;;
8297;SDS011;4187;42.778;23.242;2023-04-24T07:37:53;6.40;;;4.75;;
8297;SDS011;4187;42.778;23.242;2023-04-24T07:40:21;7.35;;;4.38;;
8297;SDS011;4187;42.778;23.242;2023-04-24T07:42:48;5.32;;;4.82;;
8297;SDS011;4187;42.778;23.242;2023-04-24T07:45:15;6.03;;;4.53;;
8297;SDS011;4187;42.778;23.242;2023-04-24T07:47:42;5.75;;;4.35;;
8297;SDS011;4187;42.778;23.242;2023-04-24T07:50:10;8.75;;;4.90;;
8297;SDS011;4187;42.778;23.242;2023-04-24T07:52:37;6.03;;;4.53;;
8297;SDS011;4187;42.778;23.242;2023-04-24T07:55:05;6.72;;;4.93;;
8297;SDS011;4187;42.778;23.242;2023-04-24T07:57:33;5.13;;;4.45;;
8297;SDS011;4187;42.778;23.242;2023-04-24T08:00:00;5.80;;;4.40;;
8297;SDS011;4187;42.778;23.242;2023-04-24T08:02:27;7.18;;;4.55;;
8297;SDS011;4187;42.778;23.242;2023-04-24T08:04:54;5.60;;;4.50;;
8297;SDS011;4187;42.778;23.242;2023-04-24T08:07:21;7.53;;;4.88;;
8297;SDS011;4187;42.778;23.242;2023-04-24T08:09:49;7.63;;;4.32;;
8297;SDS011;4187;42.778;23.242;2023-04-24T08:12:16;5.90;;;4.38;;
8297;SDS011;4187;42.778;23.242;2023-04-24T08:14:44;4.68;;;4.20;;
8297;SDS011;4187;42.778;23.242;2023-04-24T08:17:11;8.48;;;4.65;;
8297;SDS011;4187;42.778;23.242;2023-04-24T08:19:39;4.90;;;4.50;;
8297;SDS011;4187;42.778;23.242;2023-04-24T08:22:08;4.68;;;4.25;;
8297;SDS011;4187;42.778;23.242;2023-04-24T08:24:34;8.45;;;4.90;;
8297;SDS011;4187;42.778;23.242;2023-04-24T08:27:01;7.22;;;4.70;;
8297;SDS011;4187;42.778;23.242;2023-04-24T08:29:28;8.15;;;5.18;;
8297;SDS011;4187;42.778;23.242;2023-04-24T08:31:56;5.88;;;4.50;;
8297;SDS011;4187;42.778;23.242;2023-04-24T08:34:23;8.65;;;5.20;;
8297;SDS011;4187;42.778;23.242;2023-04-24T08:36:50;5.63;;;4.68;;
8297;SDS011;4187;42.778;23.242;2023-04-24T08:39:17;6.32;;;4.55;;
8297;SDS011;4187;42.778;23.242;2023-04-24T08:41:44;5.72;;;4.30;;
8297;SDS011;4187;42.778;23.242;2023-04-24T08:44:11;6.25;;;4.70;;
8297;SDS011;4187;42.778;23.242;2023-04-24T08:46:40;9.20;;;4.57;;
8297;SDS011;4187;42.778;23.242;2023-04-24T08:49:11;10.38;;;4.90;;
8297;SDS011;4187;42.778;23.242;2023-04-24T08:51:41;6.45;;;5.10;;
8297;SDS011;4187;42.778;23.242;2023-04-24T08:54:08;6.72;;;4.93;;
8297;SDS011;4187;42.778;23.242;2023-04-24T08:56:35;5.20;;;4.50;;
8297;SDS011;4187;42.778;23.242;2023-04-24T08:59:04;5.95;;;4.80;;
8297;SDS011;4187;42.778;23.242;2023-04-24T09:01:32;6.72;;;5.20;;
8297;SDS011;4187;42.778;23.242;2023-04-24T09:04:00;6.95;;;4.82;;
8297;SDS011;4187;42.778;23.242;2023-04-24T09:06:30;5.93;;;4.50;;
8297;SDS011;4187;42.778;23.242;2023-04-24T09:08:59;5.70;;;4.88;;
8297;SDS011;4187;42.778;23.242;2023-04-24T09:11:27;6.85;;;5.13;;
8297;SDS011;4187;42.778;23.242;2023-04-24T09:13:55;5.85;;;4.78;;
8297;SDS011;4187;42.778;23.242;2023-04-24T09:16:23;6.68;;;4.57;;
8297;SDS011;4187;42.778;23.242;2023-04-24T09:18:51;6.22;;;4.88;;
8297;SDS011;4187;42.778;23.242;2023-04-24T09:21:19;7.72;;;4.45;;
8297;SDS011;4187;42.778;23.242;2023-04-24T09:23:48;6.47;;;4.57;;
8297;SDS011;4187;42.778;23.242;2023-04-24T09:26:24;7.32;;;5.65;;
8297;SDS011;4187;42.778;23.242;2023-04-24T09:28:53;5.97;;;4.90;;
8297;SDS011;4187;42.778;23.242;2023-04-24T09:31:19;6.15;;;4.78;;
8297;SDS011;4187;42.778;23.242;2023-04-24T09:33:53;7.28;;;5.07;;
8297;SDS011;4187;42.778;23.242;2023-04-24T09:36:26;5.82;;;4.68;;
8297;SDS011;4187;42.778;23.242;2023-04-24T09:38:58;14.05;;;5.00;;
8297;SDS011;4187;42.778;23.242;2023-04-24T09:41:26;9.82;;;4.95;;
8297;SDS011;4187;42.778;23.242;2023-04-24T09:43:54;7.65;;;4.53;;
8297;SDS011;4187;42.778;23.242;2023-04-24T09:46:28;10.02;;;4.90;;
8297;SDS011;4187;42.778;23.242;2023-04-24T09:48:55;6.00;;;4.38;;
8297;SDS011;4187;42.778;23.242;2023-04-24T09:51:32;7.70;;;5.00;;
8297;SDS011;4187;42.778;23.242;2023-04-24T09:54:03;6.45;;;4.47;;
8297;SDS011;4187;42.778;23.242;2023-04-24T09:56:32;5.20;;;4.68;;
8297;SDS011;4187;42.778;23.242;2023-04-24T09:59:05;6.55;;;5.25;;
8297;SDS011;4187;42.778;23.242;2023-04-24T10:01:32;7.50;;;5.13;;
8297;SDS011;4187;42.778;23.242;2023-04-24T10:04:00;6.15;;;4.65;;
8297;SDS011;4187;42.778;23.242;2023-04-24T10:06:31;7.63;;;5.10;;
8297;SDS011;4187;42.778;23.242;2023-04-24T10:09:00;5.53;;;4.10;;
8297;SDS011;4187;42.778;23.242;2023-04-24T10:11:28;9.32;;;4.80;;
8297;SDS011;4187;42.778;23.242;2023-04-24T10:13:56;7.03;;;4.40;;
8297;SDS011;4187;42.778;23.242;2023-04-24T10:16:23;5.03;;;4.18;;
8297;SDS011;4187;42.778;23.242;2023-04-24T10:18:53;7.25;;;5.10;;
8297;SDS011;4187;42.778;23.242;2023-04-24T10:21:21;5.18;;;4.68;;
8297;SDS011;4187;42.778;23.242;2023-04-24T10:23:49;7.82;;;5.00;;
8297;SDS011;4187;42.778;23.242;2023-04-24T10:26:17;7.05;;;5.20;;
8297;SDS011;4187;42.778;23.242;2023-04-24T10:28:47;7.63;;;5.38;;
8297;SDS011;4187;42.778;23.242;2023-04-24T10:31:14;7.90;;;4.80;;
8297;SDS011;4187;42.778;23.242;2023-04-24T10:33:41;6.03;;;4.85;;
8297;SDS011;4187;42.778;23.242;2023-04-24T10:36:10;7.15;;;4.60;;
8297;SDS011;4187;42.778;23.242;2023-04-24T10:38:38;11.30;;;4.80;;
8297;SDS011;4187;42.778;23.242;2023-04-24T10:41:08;6.57;;;4.63;;
8297;SDS011;4187;42.778;23.242;2023-04-24T10:43:40;6.47;;;4.22;;
8297;SDS011;4187;42.778;23.242;2023-04-24T10:46:10;11.50;;;4.93;;
8297;SDS011;4187;42.778;23.242;2023-04-24T10:48:42;7.80;;;4.82;;
8297;SDS011;4187;42.778;23.242;2023-04-24T10:51:11;10.55;;;4.82;;
8297;SDS011;4187;42.778;23.242;2023-04-24T10:53:39;5.93;;;4.65;;
8297;SDS011;4187;42.778;23.242;2023-04-24T10:56:06;8.30;;;4.47;;
8297;SDS011;4187;42.778;23.242;2023-04-24T10:58:36;5.05;;;4.53;;
8297;SDS011;4187;42.778;23.242;2023-04-24T11:01:05;4.60;;;4.13;;
8297;SDS011;4187;42.778;23.242;2023-04-24T11:03:34;5.50;;;4.40;;
8297;SDS011;4187;42.778;23.242;2023-04-24T11:06:03;5.07;;;3.92;;
8297;SDS011;4187;42.778;23.242;2023-04-24T11:08:32;5.85;;;4.40;;
8297;SDS011;4187;42.778;23.242;2023-04-24T11:11:04;6.75;;;4.10;;
8297;SDS011;4187;42.778;23.242;2023-04-24T11:16:30;8.02;;;3.65;;
8297;SDS011;4187;42.778;23.242;2023-04-24T11:19:05;4.97;;;3.17;;
8297;SDS011;4187;42.778;23.242;2023-04-24T11:21:40;3.10;;;2.90;;
8297;SDS011;4187;42.778;23.242;2023-04-24T11:24:27;3.60;;;3.03;;
8297;SDS011;4187;42.778;23.242;2023-04-24T11:27:05;10.63;;;3.22;;
8297;SDS011;4187;42.778;23.242;2023-04-24T11:29:43;6.13;;;3.83;;
8297;SDS011;4187;42.778;23.242;2023-04-24T11:32:18;4.22;;;3.47;;
8297;SDS011;4187;42.778;23.242;2023-04-24T11:34:51;3.65;;;3.35;;
8297;SDS011;4187;42.778;23.242;2023-04-24T11:37:19;3.67;;;3.10;;
8297;SDS011;4187;42.778;23.242;2023-04-24T11:39:46;4.47;;;3.28;;
8297;SDS011;4187;42.778;23.242;2023-04-24T11:42:14;3.72;;;2.83;;
8297;SDS011;4187;42.778;23.242;2023-04-24T11:44:42;2.65;;;2.45;;
8297;SDS011;4187;42.778;23.242;2023-04-24T11:47:09;5.85;;;3.00;;
8297;SDS011;4187;42.778;23.242;2023-04-24T11:49:36;5.10;;;3.08;;
8297;SDS011;4187;42.778;23.242;2023-04-24T11:52:04;6.97;;;3.33;;
8297;SDS011;4187;42.778;23.242;2023-04-24T11:54:31;5.00;;;3.38;;
8297;SDS011;4187;42.778;23.242;2023-04-24T11:56:58;3.78;;;3.47;;
8297;SDS011;4187;42.778;23.242;2023-04-24T11:59:25;3.58;;;3.28;;
8297;SDS011;4187;42.778;23.242;2023-04-24T12:01:52;3.63;;;3.33;;
8297;SDS011;4187;42.778;23.242;2023-04-24T12:04:19;3.53;;;3.22;;
8297;SDS011;4187;42.778;23.242;2023-04-24T12:07:01;4.90;;;3.85;;
8297;SDS011;4187;42.778;23.242;2023-04-24T12:09:32;5.15;;;3.45;;
8297;SDS011;4187;42.778;23.242;2023-04-24T12:12:07;4.45;;;3.20;;
8297;SDS011;4187;42.778;23.242;2023-04-24T12:14:41;4.93;;;3.67;;
8297;SDS011;4187;42.778;23.242;2023-04-24T12:17:08;5.20;;;3.60;;
8297;SDS011;4187;42.778;23.242;2023-04-24T12:19:36;5.07;;;3.53;;
8297;SDS011;4187;42.778;23.242;2023-04-24T12:22:04;5.45;;;3.97;;
8297;SDS011;4187;42.778;23.242;2023-04-24T12:24:33;5.65;;;3.88;;
8297;SDS011;4187;42.778;23.242;2023-04-24T12:26:59;6.18;;;3.47;;
8297;SDS011;4187;42.778;23.242;2023-04-24T12:29:27;6.53;;;4.45;;
8297;SDS011;4187;42.778;23.242;2023-04-24T12:31:54;9.38;;;4.07;;
8297;SDS011;4187;42.778;23.242;2023-04-24T12:34:22;7.60;;;3.65;;
8297;SDS011;4187;42.778;23.242;2023-04-24T12:36:50;7.07;;;3.92;;
8297;SDS011;4187;42.778;23.242;2023-04-24T12:39:17;7.50;;;3.67;;
8297;SDS011;4187;42.778;23.242;2023-04-24T12:41:55;8.55;;;4.07;;
8297;SDS011;4187;42.778;23.242;2023-04-24T12:44:29;6.90;;;4.10;;
8297;SDS011;4187;42.778;23.242;2023-04-24T12:46:57;5.22;;;3.38;;
8297;SDS011;4187;42.778;23.242;2023-04-24T12:49:24;4.45;;;3.25;;
8297;SDS011;4187;42.778;23.242;2023-04-24T12:51:51;3.03;;;2.72;;
8297;SDS011;4187;42.778;23.242;2023-04-24T12:54:18;3.60;;;3.30;;
8297;SDS011;4187;42.778;23.242;2023-04-24T12:56:45;6.53;;;4.80;;
8297;SDS011;4187;42.778;23.242;2023-04-24T12:59:13;5.28;;;4.63;;
8297;SDS011;4187;42.778;23.242;2023-04-24T13:01:40;4.32;;;3.90;;
8297;SDS011;4187;42.778;23.242;2023-04-24T13:04:07;4.88;;;4.45;;
8297;SDS011;4187;42.778;23.242;2023-04-24T13:06:34;5.38;;;3.85;;
8297;SDS011;4187;42.778;23.242;2023-04-24T13:09:01;7.38;;;3.97;;
8297;SDS011;4187;42.778;23.242;2023-04-24T13:11:28;4.15;;;3.63;;
8297;SDS011;4187;42.778;23.242;2023-04-24T13:13:55;4.78;;;4.00;;
8297;SDS011;4187;42.778;23.242;2023-04-24T13:16:23;4.85;;;3.78;;
8297;SDS011;4187;42.778;23.242;2023-04-24T13:18:50;4.22;;;3.67;;
8297;SDS011;4187;42.778;23.242;2023-04-24T13:21:17;3.75;;;3.42;;
8297;SDS011;4187;42.778;23.242;2023-04-24T13:23:44;4.75;;;4.07;;
8297;SDS011;4187;42.778;23.242;2023-04-24T13:26:11;5.80;;;3.20;;
8297;SDS011;4187;42.778;23.242;2023-04-24T13:28:38;5.00;;;3.40;;
8297;SDS011;4187;42.778;23.242;2023-04-24T13:31:05;3.58;;;3.28;;
8297;SDS011;4187;42.778;23.242;2023-04-24T13:33:33;3.53;;;3.20;;
8297;SDS011;4187;42.778;23.242;2023-04-24T13:36:03;6.50;;;3.35;;
8297;SDS011;4187;42.778;23.242;2023-04-24T13:38:30;4.75;;;3.60;;
8297;SDS011;4187;42.778;23.242;2023-04-24T13:40:57;4.65;;;3.33;;
8297;SDS011;4187;42.778;23.242;2023-04-24T13:43:24;4.53;;;3.47;;
8297;SDS011;4187;42.778;23.242;2023-04-24T13:45:51;3.67;;;2.90;;
8297;SDS011;4187;42.778;23.242;2023-04-24T13:48:17;3.83;;;3.10;;
8297;SDS011;4187;42.778;23.242;2023-04-24T13:50:46;3.35;;;3.05;;
8297;SDS011;4187;42.778;23.242;2023-04-24T13:53:13;5.35;;;3.35;;
8297;SDS011;4187;42.778;23.242;2023-04-24T13:55:40;3.13;;;2.83;;
8297;SDS011;4187;42.778;23.242;2023-04-24T13:58:07;5.07;;;3.45;;
8297;SDS011;4187;42.778;23.242;2023-04-24T14:00:33;6.32;;;2.85;;
8297;SDS011;4187;42.778;23.242;2023-04-24T14:03:00;3.50;;;3.20;;
8297;SDS011;4187;42.778;23.242;2023-04-24T14:05:27;4.38;;;3.20;;
8297;SDS011;4187;42.778;23.242;2023-04-24T14:07:55;4.10;;;3.30;;
8297;SDS011;4187;42.778;23.242;2023-04-24T14:10:22;3.75;;;3.33;;
8297;SDS011;4187;42.778;23.242;2023-04-24T14:12:49;4.07;;;3.72;;
8297;SDS011;4187;42.778;23.242;2023-04-24T14:15:18;3.95;;;3.55;;
8297;SDS011;4187;42.778;23.242;2023-04-24T14:17:45;3.83;;;3.47;;
8297;SDS011;4187;42.778;23.242;2023-04-24T14:20:12;3.75;;;3.05;;
8297;SDS011;4187;42.778;23.242;2023-04-24T14:22:39;3.40;;;3.10;;
8297;SDS011;4187;42.778;23.242;2023-04-24T14:25:08;6.13;;;4.40;;
8297;SDS011;4187;42.778;23.242;2023-04-24T14:27:35;3.58;;;2.97;;
8297;SDS011;4187;42.778;23.242;2023-04-24T14:30:02;3.85;;;3.20;;
8297;SDS011;4187;42.778;23.242;2023-04-24T14:32:29;5.05;;;3.33;;
8297;SDS011;4187;42.778;23.242;2023-04-24T14:34:56;3.33;;;3.03;;
8297;SDS011;4187;42.778;23.242;2023-04-24T14:37:23;3.00;;;2.70;;
8297;SDS011;4187;42.778;23.242;2023-04-24T14:39:51;6.35;;;3.10;;
8297;SDS011;4187;42.778;23.242;2023-04-24T14:42:19;3.65;;;3.13;;
8297;SDS011;4187;42.778;23.242;2023-04-24T14:44:46;3.83;;;3.45;;
8297;SDS011;4187;42.778;23.242;2023-04-24T14:47:13;6.78;;;3.22;;
8297;SDS011;4187;42.778;23.242;2023-04-24T14:49:40;4.65;;;2.95;;
8297;SDS011;4187;42.778;23.242;2023-04-24T14:52:08;4.43;;;2.83;;
8297;SDS011;4187;42.778;23.242;2023-04-24T14:54:35;4.10;;;3.00;;
8297;SDS011;4187;42.778;23.242;2023-04-24T14:57:02;4.18;;;2.80;;
8297;SDS011;4187;42.778;23.242;2023-04-24T14:59:30;5.05;;;3.47;;
8297;SDS011;4187;42.778;23.242;2023-04-24T15:01:57;5.35;;;4.82;;
8297;SDS011;4187;42.778;23.242;2023-04-24T15:04:24;3.72;;;3.35;;